Time;durP1;ratioP1;P1;durP2;ratioP2;P2;SDS_P1;SDS_P2;PMS_P1;PMS_P2;Temp;Humidity;BMP_temperature;BMP_pressure;BME280_temperature;BME280_humidity;BME280_pressure;Samples;Min_cycle;Max_cycle;Signal;HPM_P1;HPM_P2
2022/10/09 00:01:19;;;;;;;12.13;7.43;;;9.20;99.90;;;;;;5025781;28;20212;-81
2022/10/09 00:03:48;;;;;;;15.23;7.27;;;9.10;99.90;;;;;;5023971;28;20222;-79
2022/10/09 00:06:18;;;;;;;16.33;7.13;;;9.10;99.90;;;;;;5027986;28;20211;-81
2022/10/09 00:08:46;;;;;;;18.47;7.27;;;9.30;99.90;;;;;;5042388;28;20218;-81
2022/10/09 00:11:16;;;;;;;13.03;7.60;;;9.10;99.90;;;;;;5041814;28;20309;-81
2022/10/09 00:13:44;;;;;;;14.23;7.77;;;9.00;99.90;;;;;;5041594;28;20632;-81
2022/10/09 00:16:12;;;;;;;16.67;7.30;;;9.00;99.90;;;;;;5035699;28;20743;-81
2022/10/09 00:18:42;;;;;;;15.30;7.00;;;9.10;99.90;;;;;;5040189;28;20296;-82
2022/10/09 00:21:26;;;;;;;14.97;6.27;;;9.20;99.90;;;;;;5045289;28;20205;-81
2022/10/09 00:23:56;;;;;;;17.80;6.93;;;8.90;99.90;;;;;;5037300;28;20649;-80
2022/10/09 00:26:23;;;;;;;15.70;7.07;;;8.90;99.90;;;;;;5018500;28;20721;-81
2022/10/09 00:28:51;;;;;;;10.97;6.40;;;8.90;99.90;;;;;;5021841;28;20210;-81
2022/10/09 00:31:18;;;;;;;13.17;6.47;;;8.70;99.90;;;;;;5020268;28;20711;-82
2022/10/09 00:33:46;;;;;;;15.07;6.93;;;8.70;99.90;;;;;;5036991;28;20246;-81
2022/10/09 00:36:22;;;;;;;11.10;6.40;;;8.80;99.90;;;;;;5042743;28;20206;-81
2022/10/09 00:38:49;;;;;;;14.10;7.17;;;8.70;99.90;;;;;;5032190;28;20199;-81
2022/10/09 00:41:29;;;;;;;13.93;6.07;;;8.90;99.90;;;;;;5052775;28;20207;-80
2022/10/09 00:44:02;;;;;;;19.70;7.20;;;8.70;99.90;;;;;;5036673;28;20209;-81
2022/10/09 00:46:49;;;;;;;21.43;7.93;;;8.70;99.90;;;;;;5029688;28;20223;-81
2022/10/09 00:49:28;;;;;;;12.13;6.30;;;8.60;99.90;;;;;;5033718;28;20261;-82
2022/10/09 00:52:01;;;;;;;11.43;6.40;;;8.60;99.90;;;;;;5052549;28;20233;-80
2022/10/09 00:54:36;;;;;;;12.17;6.93;;;8.60;99.90;;;;;;5053273;28;20214;-81
2022/10/09 00:57:03;;;;;;;12.33;6.83;;;8.60;99.90;;;;;;5038707;28;20234;-81
2022/10/09 00:59:31;;;;;;;13.00;7.00;;;8.50;99.90;;;;;;5034680;28;20236;-81
2022/10/09 01:01:58;;;;;;;14.10;7.37;;;8.50;99.90;;;;;;5059005;28;20222;-80
2022/10/09 01:04:25;;;;;;;14.67;7.50;;;8.70;99.90;;;;;;5035846;28;20215;-81
2022/10/09 01:07:06;;;;;;;16.00;8.70;;;8.70;99.90;;;;;;5034333;28;20210;-81
2022/10/09 01:09:44;;;;;;;15.83;8.63;;;8.50;99.90;;;;;;5047774;28;20256;-82
2022/10/09 01:12:34;;;;;;;11.80;7.23;;;8.40;99.90;;;;;;5016277;28;20229;-81
2022/10/09 01:15:32;;;;;;;16.77;7.27;;;8.40;99.90;;;;;;5037599;28;20201;-83
2022/10/09 01:18:11;;;;;;;12.10;6.60;;;8.40;99.90;;;;;;5042508;28;20223;-81
2022/10/09 01:20:41;;;;;;;16.20;8.43;;;8.30;99.90;;;;;;5024184;28;20673;-81
2022/10/09 01:23:40;;;;;;;10.97;7.40;;;8.30;99.90;;;;;;5041730;28;20276;-80
2022/10/09 01:26:22;;;;;;;13.90;6.73;;;8.30;99.90;;;;;;5050941;28;20634;-82
2022/10/09 01:28:54;;;;;;;14.53;7.83;;;8.30;99.90;;;;;;5030412;28;20262;-80
2022/10/09 01:31:26;;;;;;;19.97;7.73;;;8.50;99.90;;;;;;5050243;28;20237;-81
2022/10/09 01:34:02;;;;;;;14.63;8.57;;;8.20;99.90;;;;;;5053169;28;20311;-82
2022/10/09 01:36:31;;;;;;;22.10;8.30;;;8.20;99.90;;;;;;5061631;28;20211;-81
2022/10/09 01:39:02;;;;;;;15.43;8.07;;;8.20;99.90;;;;;;5040126;28;20202;-80
2022/10/09 01:41:29;;;;;;;20.40;8.70;;;8.10;99.90;;;;;;5040532;28;20201;-81
2022/10/09 01:44:27;;;;;;;14.93;8.37;;;8.10;99.90;;;;;;5023717;28;20209;-81
2022/10/09 01:46:58;;;;;;;18.97;7.83;;;8.10;99.90;;;;;;5025348;28;20194;-81
2022/10/09 01:49:41;;;;;;;11.73;7.23;;;8.10;99.90;;;;;;5033842;28;20217;-81
2022/10/09 01:52:34;;;;;;;13.97;7.70;;;8.00;99.90;;;;;;5045066;28;20227;-81
2022/10/09 01:55:33;;;;;;;11.83;6.50;;;8.00;99.90;;;;;;5071830;28;20616;-81
2022/10/09 01:58:28;;;;;;;12.60;6.87;;;7.90;99.90;;;;;;5033513;28;20293;-80
2022/10/09 02:01:10;;;;;;;20.03;7.50;;;7.90;99.90;;;;;;5049716;28;20224;-81
2022/10/09 02:03:39;;;;;;;21.43;8.23;;;7.80;99.90;;;;;;5062175;28;20221;-81
2022/10/09 02:06:10;;;;;;;17.03;8.20;;;7.50;99.90;;;;;;5045728;28;20244;-81
2022/10/09 02:08:39;;;;;;;15.97;7.57;;;8.10;99.90;;;;;;5067616;28;20205;-80
2022/10/09 02:11:10;;;;;;;15.27;7.07;;;7.80;99.90;;;;;;5049531;28;20673;-79
2022/10/09 02:13:37;;;;;;;15.63;7.23;;;7.80;99.90;;;;;;5058946;28;20284;-81
2022/10/09 02:16:21;;;;;;;14.33;7.60;;;7.80;99.90;;;;;;5050117;28;20225;-80
2022/10/09 02:19:29;;;;;;;13.23;7.00;;;7.70;99.90;;;;;;5033310;28;20217;-82
2022/10/09 02:22:27;;;;;;;15.70;7.07;;;7.70;99.90;;;;;;5033951;28;20214;-80
2022/10/09 02:24:57;;;;;;;15.40;6.60;;;7.60;99.90;;;;;;5031881;28;20201;-81
2022/10/09 02:27:26;;;;;;;11.80;6.67;;;7.50;99.90;;;;;;5048810;28;20297;-82
2022/10/09 02:29:53;;;;;;;12.70;6.20;;;8.00;99.90;;;;;;5042861;28;20275;-80
2022/10/09 02:32:22;;;;;;;11.50;6.70;;;7.60;99.90;;;;;;5029642;28;20228;-80
2022/10/09 02:34:49;;;;;;;14.23;6.30;;;7.50;99.90;;;;;;5044465;28;20205;-81
2022/10/09 02:37:17;;;;;;;11.97;6.53;;;7.50;99.90;;;;;;5027023;28;20815;-81
2022/10/09 02:39:46;;;;;;;8.57;6.27;;;7.40;99.90;;;;;;5036979;28;20232;-80
2022/10/09 02:42:13;;;;;;;12.53;6.97;;;7.40;99.90;;;;;;5048751;28;20224;-81
2022/10/09 02:44:41;;;;;;;13.70;6.37;;;7.40;99.90;;;;;;5026254;28;20213;-80
2022/10/09 02:47:08;;;;;;;11.23;6.07;;;7.30;99.90;;;;;;5023491;28;20221;-80
2022/10/09 02:49:35;;;;;;;11.90;6.53;;;7.30;99.90;;;;;;5044896;28;20270;-82
2022/10/09 02:52:02;;;;;;;9.90;6.20;;;7.20;99.90;;;;;;5042949;28;20223;-79
2022/10/09 02:54:29;;;;;;;15.70;6.57;;;7.20;99.90;;;;;;5046748;28;20793;-81
2022/10/09 02:56:56;;;;;;;10.33;5.80;;;7.10;99.90;;;;;;5045054;28;20227;-81
2022/10/09 02:59:23;;;;;;;12.87;5.73;;;7.60;99.90;;;;;;5052166;28;20242;-81
2022/10/09 03:01:50;;;;;;;14.60;7.53;;;7.00;99.90;;;;;;5034030;28;20216;-82
2022/10/09 03:04:18;;;;;;;13.90;6.90;;;7.70;99.90;;;;;;5022839;28;20205;-81
2022/10/09 03:06:44;;;;;;;12.13;7.17;;;7.70;99.90;;;;;;5048859;28;20321;-80
2022/10/09 03:09:11;;;;;;;10.90;6.33;;;7.10;99.90;;;;;;5043995;28;20724;-81
2022/10/09 03:11:38;;;;;;;11.33;6.17;;;6.90;99.90;;;;;;5040190;28;20371;-81
2022/10/09 03:14:07;;;;;;;12.40;6.50;;;7.00;99.90;;;;;;5041125;28;20343;-81
2022/10/09 03:16:34;;;;;;;13.90;7.13;;;7.00;99.90;;;;;;5030825;28;20300;-81
2022/10/09 03:19:02;;;;;;;13.60;8.00;;;7.00;99.90;;;;;;5027605;28;20293;-82
2022/10/09 03:21:29;;;;;;;20.70;7.17;;;7.00;99.90;;;;;;5027150;28;20770;-80
2022/10/09 03:23:56;;;;;;;14.47;7.63;;;7.10;99.90;;;;;;5042188;28;20275;-81
2022/10/09 03:26:25;;;;;;;13.20;6.73;;;6.90;99.90;;;;;;5039351;28;20209;-81
2022/10/09 03:28:54;;;;;;;17.80;7.73;;;8.10;99.90;;;;;;5040911;28;20523;-81
2022/10/09 03:31:22;;;;;;;13.67;7.07;;;;;;;;;;5050577;28;20228;-83
2022/10/09 03:34:12;;;;;;;16.20;7.13;;;7.10;99.90;;;;;;5051542;28;20206;-80
2022/10/09 03:36:41;;;;;;;11.10;6.33;;;6.80;99.90;;;;;;5024449;28;20219;-80
2022/10/09 03:39:08;;;;;;;11.53;5.80;;;6.90;99.90;;;;;;5038415;28;20205;-81
2022/10/09 03:41:35;;;;;;;11.13;7.13;;;6.80;99.90;;;;;;5030276;28;20201;-81
2022/10/09 03:44:01;;;;;;;12.80;6.93;;;6.80;99.90;;;;;;5035326;28;20605;-80
2022/10/09 03:46:28;;;;;;;14.27;6.63;;;6.80;99.90;;;;;;5034319;28;21025;-80
2022/10/09 03:48:56;;;;;;;13.93;7.90;;;7.50;99.90;;;;;;5023887;28;20771;-80
2022/10/09 03:51:23;;;;;;;10.97;7.50;;;6.70;99.90;;;;;;5042864;28;20263;-80
2022/10/09 03:53:50;;;;;;;11.93;7.17;;;;;;;;;;5020477;28;20234;-80
2022/10/09 03:56:17;;;;;;;11.40;7.23;;;6.70;99.90;;;;;;5023425;28;20256;-82
2022/10/09 03:58:44;;;;;;;12.60;7.03;;;6.80;99.90;;;;;;5029663;28;20212;-81
2022/10/09 04:01:15;;;;;;;19.17;9.37;;;6.70;99.90;;;;;;5031932;28;20279;-81
2022/10/09 04:03:42;;;;;;;15.37;8.20;;;6.70;99.90;;;;;;5043115;28;20210;-80
2022/10/09 04:06:09;;;;;;;15.50;7.67;;;7.10;99.90;;;;;;5045030;28;20725;-81
2022/10/09 04:08:42;;;;;;;11.03;7.17;;;6.70;99.90;;;;;;5043179;28;20715;-81
2022/10/09 04:11:09;;;;;;;18.27;8.43;;;6.70;99.90;;;;;;5047414;28;20220;-81
2022/10/09 04:13:37;;;;;;;17.00;9.27;;;6.70;99.90;;;;;;5034715;28;20562;-79
2022/10/09 04:16:04;;;;;;;17.83;8.90;;;6.70;99.90;;;;;;5031637;28;20224;-82
2022/10/09 04:18:34;;;;;;;19.80;8.53;;;6.60;99.90;;;;;;5032291;28;20240;-81
2022/10/09 04:21:02;;;;;;;17.47;8.30;;;6.70;99.90;;;;;;5040476;28;20658;-82
2022/10/09 04:23:29;;;;;;;15.10;8.00;;;6.70;99.90;;;;;;5047955;28;20208;-80
2022/10/09 04:25:58;;;;;;;15.27;8.10;;;6.80;99.90;;;;;;5027405;28;20210;-81
2022/10/09 04:28:30;;;;;;;16.10;8.13;;;6.70;99.90;;;;;;5035437;28;20208;-81
2022/10/09 04:30:59;;;;;;;20.20;8.33;;;6.60;99.90;;;;;;5050068;28;20317;-80
2022/10/09 04:33:28;;;;;;;14.47;6.63;;;6.60;99.90;;;;;;5057708;28;20225;-80
2022/10/09 04:35:57;;;;;;;13.10;6.90;;;6.60;99.90;;;;;;5057547;28;20196;-81
2022/10/09 04:38:29;;;;;;;13.43;7.57;;;6.70;99.90;;;;;;5050007;28;20211;-83
2022/10/09 04:40:59;;;;;;;15.10;7.23;;;6.60;99.90;;;;;;5054019;28;20213;-82
2022/10/09 04:43:27;;;;;;;14.50;7.20;;;6.60;99.90;;;;;;5064728;28;20733;-80
2022/10/09 04:45:54;;;;;;;17.53;7.67;;;6.50;99.90;;;;;;5055103;28;20219;-80
2022/10/09 04:48:24;;;;;;;12.27;7.27;;;6.50;99.90;;;;;;5058990;28;20213;-81
2022/10/09 04:50:51;;;;;;;10.57;6.90;;;6.50;99.90;;;;;;5042537;28;20211;-80
2022/10/09 04:53:18;;;;;;;14.27;7.10;;;6.50;99.90;;;;;;5052508;28;20236;-80
2022/10/09 04:55:47;;;;;;;14.50;6.73;;;6.40;99.90;;;;;;5058964;28;20198;-81
2022/10/09 04:58:13;;;;;;;12.97;7.40;;;6.40;99.90;;;;;;5055585;28;20366;-82
2022/10/09 05:00:43;;;;;;;17.83;7.73;;;6.30;99.90;;;;;;5035099;28;20432;-81
2022/10/09 05:03:11;;;;;;;12.90;7.37;;;6.30;99.90;;;;;;5056974;28;20211;-83
2022/10/09 05:05:39;;;;;;;14.43;7.90;;;6.30;99.90;;;;;;5035715;28;20209;-81
2022/10/09 05:08:09;;;;;;;14.97;7.23;;;6.30;99.90;;;;;;5057630;28;20201;-82
2022/10/09 05:10:36;;;;;;;16.30;8.53;;;6.40;99.90;;;;;;5052893;28;20213;-80
2022/10/09 05:13:03;;;;;;;15.93;8.13;;;6.40;99.90;;;;;;5063046;28;20605;-81
2022/10/09 05:15:30;;;;;;;15.30;8.00;;;6.50;99.90;;;;;;5063581;28;20200;-81
2022/10/09 05:17:57;;;;;;;12.03;7.87;;;6.40;99.90;;;;;;5062444;28;20318;-82
2022/10/09 05:20:24;;;;;;;30.63;9.93;;;6.30;99.90;;;;;;5049813;28;20443;-82
2022/10/09 05:22:51;;;;;;;15.00;8.37;;;6.20;99.90;;;;;;5052422;28;20552;-82
2022/10/09 05:25:25;;;;;;;14.53;9.10;;;6.20;99.90;;;;;;5040640;28;20208;-82
2022/10/09 05:27:52;;;;;;;10.10;7.40;;;6.10;99.90;;;;;;5033027;28;20260;-83
2022/10/09 05:30:19;;;;;;;12.70;7.87;;;6.20;99.90;;;;;;5054136;28;20241;-83
2022/10/09 05:32:46;;;;;;;14.07;8.00;;;6.30;99.90;;;;;;5035693;28;20600;-81
2022/10/09 05:35:14;;;;;;;13.70;8.27;;;6.10;99.90;;;;;;5055618;28;20620;-81
2022/10/09 05:37:46;;;;;;;15.63;8.93;;;6.30;99.90;;;;;;5038218;28;20202;-81
2022/10/09 05:40:13;;;;;;;12.63;8.40;;;6.10;99.90;;;;;;5055196;28;20194;-81
2022/10/09 05:42:41;;;;;;;16.23;7.90;;;6.10;99.90;;;;;;5056852;28;20212;-82
2022/10/09 05:45:09;;;;;;;14.80;8.40;;;6.20;99.90;;;;;;5058454;28;20205;-80
2022/10/09 05:47:36;;;;;;;12.20;8.03;;;6.10;99.90;;;;;;5040540;28;20223;-82
2022/10/09 05:50:03;;;;;;;18.30;7.87;;;6.10;99.90;;;;;;5058832;28;20288;-79
2022/10/09 05:52:30;;;;;;;13.33;8.13;;;6.10;99.90;;;;;;5051648;28;20302;-81
2022/10/09 05:54:58;;;;;;;17.33;8.57;;;6.20;99.90;;;;;;5050700;28;20201;-81
2022/10/09 05:57:25;;;;;;;11.37;7.90;;;6.00;99.90;;;;;;5044802;28;20583;-81
2022/10/09 05:59:53;;;;;;;20.47;8.77;;;6.00;99.90;;;;;;5036270;28;20236;-81
2022/10/09 06:02:20;;;;;;;16.00;8.83;;;6.00;99.90;;;;;;5059327;28;20232;-83
2022/10/09 06:04:48;;;;;;;20.33;10.03;;;6.00;99.90;;;;;;5051761;28;20201;-81
2022/10/09 06:07:16;;;;;;;13.70;9.23;;;6.00;99.90;;;;;;5050271;28;20198;-80
2022/10/09 06:09:43;;;;;;;13.47;8.53;;;6.00;99.90;;;;;;5041232;28;20246;-82
2022/10/09 06:12:11;;;;;;;16.57;8.80;;;6.00;99.90;;;;;;5043533;28;20240;-81
2022/10/09 06:14:37;;;;;;;16.37;9.13;;;6.00;99.90;;;;;;5024604;28;20248;-83
2022/10/09 06:17:06;;;;;;;14.73;9.93;;;6.50;99.90;;;;;;5019955;28;20772;-82
2022/10/09 06:19:33;;;;;;;16.87;9.30;;;6.10;99.90;;;;;;5039095;28;20213;-81
2022/10/09 06:21:59;;;;;;;20.80;10.27;;;6.20;99.90;;;;;;5040874;28;20219;-83
2022/10/09 06:24:26;;;;;;;14.77;9.70;;;6.10;99.90;;;;;;5041317;28;20664;-81
2022/10/09 06:26:57;;;;;;;18.47;9.17;;;6.20;99.90;;;;;;5042327;28;20225;-82
2022/10/09 06:29:24;;;;;;;16.33;10.10;;;6.30;99.90;;;;;;5039390;28;20204;-81
2022/10/09 06:31:51;;;;;;;15.40;10.50;;;6.20;99.90;;;;;;5022845;28;20242;-82
2022/10/09 06:34:18;;;;;;;20.03;11.43;;;6.30;99.90;;;;;;5042541;28;20235;-82
2022/10/09 06:36:45;;;;;;;24.13;12.73;;;6.30;99.90;;;;;;5052416;28;20251;-82
2022/10/09 06:39:12;;;;;;;24.40;13.30;;;6.50;99.90;;;;;;5051206;28;20623;-83
2022/10/09 06:41:39;;;;;;;19.97;11.43;;;6.60;99.90;;;;;;5030761;28;20472;-82
2022/10/09 06:44:09;;;;;;;17.70;10.73;;;6.80;99.90;;;;;;5040587;28;20201;-81
2022/10/09 06:46:43;;;;;;;20.23;10.90;;;6.90;99.90;;;;;;5038488;28;20748;-81
2022/10/09 06:49:11;;;;;;;16.30;10.30;;;7.00;99.90;;;;;;5042366;28;20205;-83
2022/10/09 06:51:38;;;;;;;13.47;10.17;;;7.00;99.90;;;;;;5034332;28;20213;-82
2022/10/09 06:54:11;;;;;;;13.70;10.00;;;7.10;99.90;;;;;;5039038;28;20232;-81
2022/10/09 06:56:41;;;;;;;14.30;9.57;;;7.20;99.90;;;;;;5019199;28;20206;-81
2022/10/09 06:59:10;;;;;;;16.93;10.23;;;7.30;99.90;;;;;;5020022;28;20684;-81
2022/10/09 07:01:37;;;;;;;18.90;9.67;;;7.40;99.90;;;;;;5035682;28;20677;-82
2022/10/09 07:04:08;;;;;;;13.87;9.00;;;7.40;99.90;;;;;;5019327;28;20218;-81
2022/10/09 07:06:40;;;;;;;13.90;9.20;;;7.50;99.90;;;;;;5019181;28;20249;-81
2022/10/09 07:09:10;;;;;;;12.77;8.80;;;7.60;99.90;;;;;;5023258;28;20210;-82
2022/10/09 07:11:47;;;;;;;14.80;8.83;;;7.60;99.90;;;;;;5039320;28;20229;-82
2022/10/09 07:14:15;;;;;;;13.23;8.70;;;7.70;99.90;;;;;;5038907;28;20206;-81
2022/10/09 07:16:45;;;;;;;14.33;9.03;;;7.90;99.90;;;;;;5038530;28;20213;-81
2022/10/09 07:19:13;;;;;;;13.17;8.63;;;7.80;99.90;;;;;;5021164;28;20510;-80
2022/10/09 07:21:45;;;;;;;15.10;8.70;;;7.90;99.90;;;;;;5038534;28;20724;-81
2022/10/09 07:24:13;;;;;;;15.57;8.87;;;8.10;99.90;;;;;;5038574;28;20201;-81
2022/10/09 07:26:43;;;;;;;12.73;8.77;;;8.10;99.90;;;;;;5023572;28;20244;-82
2022/10/09 07:29:12;;;;;;;13.13;8.47;;;8.30;99.90;;;;;;5038111;28;20647;-80
2022/10/09 07:31:39;;;;;;;11.73;8.07;;;8.20;99.90;;;;;;5031512;28;20227;-80
2022/10/09 07:34:06;;;;;;;12.93;8.43;;;8.30;99.90;;;;;;5042500;28;20313;-82
2022/10/09 07:36:33;;;;;;;18.87;8.70;;;8.30;99.90;;;;;;5035629;28;20271;-81
2022/10/09 07:39:00;;;;;;;12.07;7.70;;;8.40;99.90;;;;;;5036098;28;20322;-82
2022/10/09 07:41:28;;;;;;;12.63;8.37;;;8.50;99.90;;;;;;5020816;28;20237;-81
2022/10/09 07:43:56;;;;;;;12.30;8.23;;;8.60;99.90;;;;;;5027692;28;20203;-83
2022/10/09 07:46:24;;;;;;;16.87;8.63;;;8.70;99.90;;;;;;5016797;28;20689;-82
2022/10/09 07:48:58;;;;;;;13.53;9.00;;;8.60;99.90;;;;;;5038939;28;20213;-80
2022/10/09 07:51:26;;;;;;;14.20;8.93;;;8.70;99.90;;;;;;5025361;28;20698;-81
2022/10/09 07:53:53;;;;;;;15.17;9.53;;;8.70;99.90;;;;;;5022082;28;20758;-80
2022/10/09 07:56:28;;;;;;;18.03;9.17;;;8.70;99.90;;;;;;5041173;28;20755;-81
2022/10/09 07:59:02;;;;;;;19.10;8.90;;;8.80;99.90;;;;;;5040591;28;20212;-79
2022/10/09 08:01:31;;;;;;;16.40;8.87;;;8.90;99.90;;;;;;5039960;28;20223;-81
2022/10/09 08:03:59;;;;;;;18.20;9.37;;;8.90;99.90;;;;;;5023778;28;20664;-82
2022/10/09 08:06:27;;;;;;;17.73;9.33;;;9.00;99.90;;;;;;5041958;28;20246;-81
2022/10/09 08:08:57;;;;;;;16.20;9.17;;;9.10;99.90;;;;;;5022634;28;20216;-80
2022/10/09 08:11:26;;;;;;;19.63;10.57;;;9.20;99.90;;;;;;5031932;28;20309;-80
2022/10/09 08:13:53;;;;;;;19.30;10.20;;;9.20;99.90;;;;;;5040173;28;20252;-79
2022/10/09 08:16:24;;;;;;;19.60;10.73;;;9.30;99.90;;;;;;5023017;28;20225;-81
2022/10/09 08:18:56;;;;;;;19.80;10.87;;;9.40;99.90;;;;;;5039234;28;20638;-82
2022/10/09 08:21:26;;;;;;;19.33;10.97;;;9.70;99.90;;;;;;5043430;28;20496;-81
2022/10/09 08:23:56;;;;;;;21.50;10.27;;;9.60;99.90;;;;;;5026080;28;20271;-81
2022/10/09 08:26:24;;;;;;;19.13;9.93;;;9.70;99.90;;;;;;5044150;28;20255;-81
2022/10/09 08:28:57;;;;;;;22.23;10.63;;;9.80;99.90;;;;;;5026474;28;20232;-82
2022/10/09 08:31:25;;;;;;;17.57;9.80;;;11.10;99.90;;;;;;5026239;28;20754;-80
2022/10/09 08:33:57;;;;;;;20.73;10.83;;;9.90;99.90;;;;;;5017925;28;20245;-82
2022/10/09 08:36:25;;;;;;;15.57;9.90;;;10.00;99.90;;;;;;5021501;28;20202;-80
2022/10/09 08:38:52;;;;;;;20.40;10.93;;;10.00;99.90;;;;;;5000641;28;20679;-80
2022/10/09 08:41:19;;;;;;;15.80;9.87;;;;;;;;;;5021359;28;20752;-82
2022/10/09 08:43:52;;;;;;;20.47;10.53;;;10.20;99.90;;;;;;5021796;28;20238;-81
2022/10/09 08:46:24;;;;;;;17.00;9.57;;;10.20;99.90;;;;;;5012717;28;20385;-82
2022/10/09 08:48:53;;;;;;;20.67;10.20;;;11.00;99.90;;;;;;5022815;28;20202;-80
2022/10/09 08:51:29;;;;;;;17.27;11.40;;;10.70;99.90;;;;;;5019162;28;21099;-80
2022/10/09 08:54:21;;;;;;;19.53;9.87;;;10.60;99.90;;;;;;5020074;28;20265;-81
2022/10/09 08:56:49;;;;;;;17.73;10.10;;;10.70;99.90;;;;;;5020779;28;20622;-79
2022/10/09 08:59:16;;;;;;;18.50;9.20;;;10.80;99.90;;;;;;5007147;28;20704;-81
2022/10/09 09:01:58;;;;;;;18.00;9.73;;;10.90;99.90;;;;;;5019774;28;20228;-80
2022/10/09 09:04:51;;;;;;;19.83;10.73;;;11.00;99.90;;;;;;5019157;28;20221;-81
2022/10/09 09:07:31;;;;;;;19.47;10.23;;;11.20;99.90;;;;;;5021169;28;20239;-80
2022/10/09 09:10:08;;;;;;;20.50;10.97;;;11.30;99.90;;;;;;5023081;28;20192;-82
2022/10/09 09:13:13;;;;;;;17.33;10.13;;;11.50;99.90;;;;;;5007556;28;20387;-81
2022/10/09 09:15:55;;;;;;;17.73;9.20;;;11.80;99.90;;;;;;4998317;28;20297;-81
2022/10/09 09:18:46;;;;;;;18.47;9.37;;;12.10;99.90;;;;;;5012145;28;20202;-82
2022/10/09 09:21:47;;;;;;;13.40;8.23;;;12.60;99.90;;;;;;4993141;28;20198;-82
2022/10/09 09:24:37;;;;;;;18.60;9.33;;;12.90;99.90;;;;;;5021354;28;20240;-82
2022/10/09 09:27:11;;;;;;;18.80;8.87;;;13.20;99.90;;;;;;5022491;28;20257;-80
2022/10/09 09:30:14;;;;;;;16.00;7.57;;;13.50;99.90;;;;;;5002900;28;20576;-81
2022/10/09 09:32:55;;;;;;;17.33;8.17;;;13.60;99.90;;;;;;4959721;28;20788;-80
2022/10/09 09:35:38;;;;;;;16.60;7.97;;;13.60;99.90;;;;;;5040392;28;20642;-82
2022/10/09 09:38:06;;;;;;;24.93;8.53;;;13.50;99.90;;;;;;5021168;28;20685;-81
2022/10/09 09:40:33;;;;;;;15.30;8.03;;;13.70;99.90;;;;;;5021772;28;20324;-82
2022/10/09 09:43:12;;;;;;;14.30;8.07;;;13.80;99.90;;;;;;5039881;28;20202;-81
2022/10/09 09:45:40;;;;;;;17.97;8.20;;;13.60;99.90;;;;;;5038483;28;20216;-81
2022/10/09 09:48:16;;;;;;;15.13;8.20;;;13.80;99.90;;;;;;5042253;28;20462;-81
2022/10/09 09:50:44;;;;;;;16.77;8.20;;;13.80;99.90;;;;;;5038284;28;20202;-82
2022/10/09 09:53:33;;;;;;;13.83;7.90;;;13.90;99.90;;;;;;5038762;28;20236;-81
2022/10/09 09:56:00;;;;;;;17.43;7.40;;;13.80;99.90;;;;;;5037923;28;20686;-81
2022/10/09 09:58:37;;;;;;;16.20;7.70;;;13.80;99.90;;;;;;5038730;28;20793;-82
2022/10/09 10:01:05;;;;;;;16.73;7.43;;;13.90;99.90;;;;;;5022422;28;20304;-81
2022/10/09 10:03:35;;;;;;;12.40;7.43;;;13.80;99.90;;;;;;5039340;28;20213;-83
2022/10/09 10:06:02;;;;;;;13.77;7.83;;;13.90;99.90;;;;;;5019506;28;20613;-81
2022/10/09 10:08:31;;;;;;;11.63;7.13;;;13.90;99.90;;;;;;5037663;28;20986;-82
2022/10/09 10:11:02;;;;;;;12.23;7.17;;;13.90;99.90;;;;;;5040736;28;20230;-81
2022/10/09 10:13:36;;;;;;;13.37;7.00;;;13.80;99.90;;;;;;5019877;28;20608;-83
2022/10/09 10:16:07;;;;;;;13.43;7.03;;;13.80;99.90;;;;;;5026239;28;20224;-80
2022/10/09 10:18:40;;;;;;;13.23;6.90;;;13.90;99.90;;;;;;5041385;28;20255;-82
2022/10/09 10:21:15;;;;;;;12.90;6.53;;;13.90;99.90;;;;;;5040315;28;20248;-83
2022/10/09 10:23:50;;;;;;;15.30;7.67;;;13.90;99.90;;;;;;5036676;28;20739;-81
2022/10/09 10:26:43;;;;;;;12.83;7.10;;;14.00;99.90;;;;;;5041558;28;20734;-83
2022/10/09 10:29:30;;;;;;;12.70;7.03;;;14.00;99.90;;;;;;5000296;28;20583;-81
2022/10/09 10:32:31;;;;;;;11.83;6.80;;;14.10;99.90;;;;;;5037441;28;20241;-81
2022/10/09 10:35:09;;;;;;;15.33;7.63;;;14.20;99.90;;;;;;5022210;28;20258;-81
2022/10/09 10:37:44;;;;;;;13.00;6.00;;;14.30;99.90;;;;;;5021911;28;20313;-81
2022/10/09 10:40:19;;;;;;;14.50;6.00;;;14.30;99.90;;;;;;5021762;28;20288;-80
2022/10/09 10:42:55;;;;;;;11.20;6.60;;;14.50;99.90;;;;;;5037653;28;20749;-82
2022/10/09 10:45:40;;;;;;;12.03;6.27;;;;;;;;;;5037304;28;20244;-81
2022/10/09 10:48:21;;;;;;;9.87;5.43;;;14.70;99.90;;;;;;5019179;28;21019;-82
2022/10/09 10:50:55;;;;;;;9.27;4.60;;;14.80;99.90;;;;;;5022182;28;20605;-79
2022/10/09 10:53:43;;;;;;;14.93;5.40;;;15.00;99.90;;;;;;5021458;28;20229;-84
2022/10/09 10:56:43;;;;;;;8.80;4.47;;;15.10;99.90;;;;;;5038658;28;20730;-82
2022/10/09 10:59:36;;;;;;;8.07;4.40;;;15.30;99.90;;;;;;5019138;28;20296;-80
2022/10/09 11:02:08;;;;;;;7.93;4.10;;;15.40;99.90;;;;;;5037817;28;20331;-81
2022/10/09 11:04:58;;;;;;;9.67;4.70;;;15.60;99.90;;;;;;5027699;28;20272;-81
2022/10/09 11:07:40;;;;;;;10.97;4.43;;;15.70;99.90;;;;;;5027191;28;20717;-81
2022/10/09 11:10:52;;;;;;;9.47;4.13;;;15.90;99.90;;;;;;5034322;28;20585;-81
2022/10/09 11:13:31;;;;;;;6.40;3.67;;;16.10;99.90;;;;;;4946210;29;20230;-80
2022/10/09 11:16:28;;;;;;;9.40;4.30;;;16.40;99.90;;;;;;5028004;28;20293;-79
2022/10/09 11:19:19;;;;;;;9.17;5.17;;;16.40;99.90;;;;;;5047323;28;20220;-81
2022/10/09 11:22:01;;;;;;;12.90;4.80;;;16.50;99.90;;;;;;5056085;28;20220;-80
2022/10/09 11:24:47;;;;;;;8.80;4.80;;;16.70;99.90;;;;;;5056274;28;20224;-81
2022/10/09 11:27:19;;;;;;;8.37;4.67;;;16.70;99.90;;;;;;5066017;28;20217;-81
2022/10/09 11:29:59;;;;;;;10.98;4.90;;;16.90;99.90;;;;;;5057062;28;20197;-82
2022/10/09 11:32:37;;;;;;;11.37;5.37;;;16.90;99.90;;;;;;5042408;28;20284;-80
2022/10/09 11:35:41;;;;;;;10.30;5.30;;;17.10;99.90;;;;;;5043184;28;20231;-81
2022/10/09 11:38:25;;;;;;;10.27;5.00;;;17.10;99.90;;;;;;4993262;28;20846;-82
2022/10/09 11:40:53;;;;;;;10.48;4.80;;;17.10;99.90;;;;;;5018848;28;20197;-83
2022/10/09 11:43:42;;;;;;;7.80;4.40;;;17.10;99.90;;;;;;5021665;28;20193;-80
2022/10/09 11:46:32;;;;;;;9.30;4.22;;;17.10;99.90;;;;;;5042336;28;20227;-82
2022/10/09 11:49:30;;;;;;;8.43;4.60;;;17.30;99.90;;;;;;5043467;28;20205;-81
2022/10/09 11:52:30;;;;;;;8.73;4.32;;;17.40;99.90;;;;;;5037360;28;20245;-80
2022/10/09 11:55:27;;;;;;;7.90;4.15;;;17.60;99.90;;;;;;5042469;28;20256;-81
2022/10/09 11:57:54;;;;;;;5.88;3.70;;;17.70;99.90;;;;;;5042251;28;20741;-81
2022/10/09 12:00:30;;;;;;;9.32;3.47;;;17.60;99.90;;;;;;5035133;28;20655;-81
2022/10/09 12:03:00;;;;;;;6.72;3.70;;;17.70;99.90;;;;;;5030701;28;20294;-81
2022/10/09 12:05:46;;;;;;;7.05;4.03;;;17.60;99.90;;;;;;5018830;28;20240;-87
2022/10/09 12:08:32;;;;;;;10.15;4.50;;;17.60;99.90;;;;;;5002315;28;20720;-80
2022/10/09 12:11:06;;;;;;;8.82;4.68;;;17.70;99.90;;;;;;5037160;28;20288;-77
2022/10/09 12:13:35;;;;;;;11.48;4.75;;;18.00;99.90;;;;;;5041059;28;20321;-79
2022/10/09 12:16:04;;;;;;;6.15;4.00;;;18.10;99.90;;;;;;5019225;28;20309;-79
2022/10/09 12:18:44;;;;;;;7.47;3.83;;;18.20;99.90;;;;;;5019968;28;20260;-79
2022/10/09 12:21:28;;;;;;;9.45;4.72;;;18.40;99.90;;;;;;5033649;28;20604;-80
2022/10/09 12:23:55;;;;;;;9.85;4.60;;;18.20;99.90;;;;;;5016462;28;20252;-79
2022/10/09 12:26:24;;;;;;;9.10;5.10;;;18.20;99.90;;;;;;5037610;28;20293;-81
2022/10/09 12:28:58;;;;;;;8.40;3.72;;;18.30;99.90;;;;;;5034092;28;20309;-79
2022/10/09 12:31:35;;;;;;;10.48;5.38;;;18.30;99.90;;;;;;5018771;28;20252;-79
2022/10/09 12:34:31;;;;;;;9.95;4.47;;;18.40;99.90;;;;;;5040732;28;20995;-80
2022/10/09 12:37:19;;;;;;;6.50;4.00;;;18.40;99.90;;;;;;5034233;28;20209;-78
2022/10/09 12:39:48;;;;;;;11.70;4.03;;;18.30;99.90;;;;;;5019220;28;20237;-80
2022/10/09 12:42:22;;;;;;;7.03;3.85;;;18.40;99.90;;;;;;5040288;28;20548;-79
2022/10/09 12:44:52;;;;;;;6.95;3.72;;;18.30;99.90;;;;;;5034397;28;20197;-80
2022/10/09 12:47:25;;;;;;;6.85;4.15;;;18.40;99.90;;;;;;5042861;28;20218;-81
2022/10/09 12:50:00;;;;;;;9.07;4.38;;;18.90;99.90;;;;;;5040895;28;20238;-79
2022/10/09 12:52:29;;;;;;;8.35;4.70;;;18.60;99.90;;;;;;5036665;28;20749;-79
2022/10/09 12:54:56;;;;;;;7.55;4.68;;;18.60;99.90;;;;;;5040815;28;20320;-80
2022/10/09 12:57:25;;;;;;;9.50;3.72;;;18.70;99.90;;;;;;5040406;28;20281;-80
2022/10/09 12:59:54;;;;;;;8.45;3.70;;;18.70;99.90;;;;;;5026566;28;20565;-79
2022/10/09 13:02:21;;;;;;;6.82;4.35;;;18.70;99.90;;;;;;5022987;28;20233;-79
2022/10/09 13:04:58;;;;;;;12.80;4.45;;;18.70;99.90;;;;;;5036775;28;20213;-81
2022/10/09 13:07:28;;;;;;;7.75;3.90;;;18.80;99.90;;;;;;5039462;28;20736;-79
2022/10/09 13:10:04;;;;;;;6.90;4.10;;;18.80;99.90;;;;;;5040132;28;20342;-80
2022/10/09 13:12:32;;;;;;;9.07;4.45;;;18.80;99.90;;;;;;5036714;28;20220;-79
2022/10/09 13:15:26;;;;;;;6.38;3.90;;;18.90;99.90;;;;;;5021277;28;20306;-81
2022/10/09 13:17:53;;;;;;;7.13;3.60;;;18.80;99.90;;;;;;5040557;28;20253;-80